Oud-Beijerland, Netherlands
Current Conditions -  °F | °C
As of 7:25 PM on Sunday 23 Nov 2014 (Local Time) from EHRD Reporting Station
Light Rain Light Rain  
Wind Chill: 55°   Ceiling: 1700
Heat Index: 55°   Visibility: 6mi
Dew Point: 54°   Wind: 8mph
Humidity: 94%   Direction: 230°SW
Pressure: 29.91"   Gusts: NA
Location:  51.82°N, 4.41°E
Report Text: EHRD 231825Z AUTO 23007KT 9999 -RADZ OVC017 13/12 Q1013 BECMG6000 BKN010
Loading
Personal Weather Stations






























Interactive Weather Map New forecast layout! Learn more

10-Day Weather Forecast

Advertisements
Track Severe Weather on mobile